Alexandria, Tennessee
Current Conditions -  °F | °C
As of 2:53 PM on Thursday 27 Nov 2014 (Local Time) from KBNA Reporting Station
Broken Clouds Broken Clouds  
Wind Chill: 29°   Ceiling: 3000
Heat Index: 37°   Visibility: 10mi
Dew Point: 23°   Wind: 12mph
Humidity: 57%   Direction: 330°NNW
Pressure: 30.43"   Gusts: NA
Location:  36.08°N, 86.03°W
Report Text: KBNA 272053Z 33010KT 10SM BKN030 03/M05 A3043 RMK AO2 SLP307 T00281050 53006
Loading
Personal Weather Stations






























Interactive Weather Map New forecast layout! Learn more

10-Day Weather Forecast

Advertisements
Track Severe Weather on mobile